Time;durP1;ratioP1;P1;durP2;ratioP2;P2;SDS_P1;SDS_P2;PMS_P1;PMS_P2;Temp;Humidity;BMP_temperature;BMP_pressure;BME280_temperature;BME280_humidity;BME280_pressure;Samples;Min_cycle;Max_cycle;Signal;HPM_P1;HPM_P2
2022/09/09 00:00:22;;;;;;;;;2.75;2.00;;;;;17.99;63.41;100646.81;5076984;27;45762;-47
2022/09/09 00:03:16;;;;;;;;;2.75;0.75;;;;;17.94;63.30;100645.56;5077214;27;45323;-47
2022/09/09 00:06:09;;;;;;;;;0.25;0.25;;;;;17.92;63.41;100638.72;5077024;27;45444;-47
2022/09/09 00:08:43;;;;;;;;;1.00;0.00;;;;;17.90;63.36;100638.91;5076590;27;46115;-49
2022/09/09 00:11:12;;;;;;;;;3.00;1.25;;;;;17.88;63.71;100646.34;5079020;27;45250;-46
2022/09/09 00:13:48;;;;;;;;;3.25;1.00;;;;;17.83;63.63;100634.53;5080551;27;45309;-47
2022/09/09 00:16:19;;;;;;;;;2.00;1.00;;;;;17.81;63.59;100639.25;5079328;27;45406;-48
2022/09/09 00:18:54;;;;;;;;;3.25;1.00;;;;;17.80;63.20;100637.63;5080266;27;46409;-49
2022/09/09 00:21:32;;;;;;;;;2.25;0.25;;;;;17.74;63.63;100641.03;5080313;27;45400;-48
2022/09/09 00:23:58;;;;;;;;;0.25;0.25;;;;;17.73;63.52;100639.38;5080289;27;45416;-50
2022/09/09 00:26:42;;;;;;;;;2.00;0.50;;;;;17.67;64.00;100641.84;5080656;27;45444;-50
2022/09/09 00:29:26;;;;;;;;;1.00;1.00;;;;;17.68;63.89;100640.81;5080014;27;46240;-49
2022/09/09 00:32:00;;;;;;;;;3.00;2.00;;;;;17.64;64.00;100634.16;5080137;27;45397;-48
2022/09/09 00:34:27;;;;;;;;;2.25;1.00;;;;;17.67;64.18;100636.47;5080466;27;46020;-46
2022/09/09 00:36:55;;;;;;;;;4.75;2.00;;;;;17.66;64.01;100642.03;5080390;27;45397;-49
2022/09/09 00:39:41;;;;;;;;;5.00;1.25;;;;;17.51;64.42;100625.16;5079707;27;45838;-48
2022/09/09 00:42:31;;;;;;;;;3.50;1.25;;;;;17.56;64.23;100626.22;5079986;27;45359;-50
2022/09/09 00:44:56;;;;;;;;;1.50;0.00;;;;;17.60;64.88;100637.44;5080129;27;45483;-47
2022/09/09 00:47:30;;;;;;;;;1.00;1.00;;;;;17.59;64.76;100630.38;5080105;27;45329;-46
2022/09/09 00:50:21;;;;;;;;;1.25;1.25;;;;;17.56;65.03;100625.41;5079869;27;45401;-53
2022/09/09 00:53:05;;;;;;;;;0.25;0.00;;;;;17.55;65.27;100643.41;5079783;27;45295;-46
2022/09/09 00:56:14;;;;;;;;;2.00;1.00;;;;;17.52;65.24;100624.13;5079982;27;45306;-50
2022/09/09 00:58:43;;;;;;;;;5.25;2.50;;;;;17.51;65.47;100628.66;5080232;27;45290;-50
2022/09/09 01:01:12;;;;;;;;;1.25;1.25;;;;;17.54;65.30;100625.59;5079853;27;45401;-51
2022/09/09 01:03:38;;;;;;;;;4.00;1.00;;;;;17.52;65.37;100613.34;5079284;27;45234;-50
2022/09/09 01:06:24;;;;;;;;;1.25;1.00;;;;;17.49;65.46;100625.34;5079711;28;45283;-49
2022/09/09 01:09:11;;;;;;;;;6.00;2.50;;;;;17.45;64.95;100624.91;5095628;27;45264;-50
2022/09/09 01:12:00;;;;;;;;;1.00;1.00;;;;;17.43;64.93;100626.94;5079241;27;45424;-48
2022/09/09 01:14:30;;;;;;;;;3.00;0.75;;;;;17.40;64.72;100623.81;5079623;27;45496;-51
2022/09/09 01:17:00;;;;;;;;;3.00;1.25;;;;;17.36;65.42;100611.78;5079480;27;45398;-50
2022/09/09 01:19:43;;;;;;;;;1.00;1.00;;;;;17.33;65.18;100612.19;5079717;27;45278;-48
2022/09/09 01:22:26;;;;;;;;;1.25;1.25;;;;;17.32;66.09;100619.44;5078247;28;46137;-47
2022/09/09 01:24:54;;;;;;;;;5.50;2.00;;;;;17.32;66.03;100621.25;5079218;27;45299;-46
2022/09/09 01:27:22;;;;;;;;;0.00;0.00;;;;;17.29;65.57;100622.50;5079300;27;45393;-51
2022/09/09 01:29:47;;;;;;;;;1.00;0.75;;;;;17.24;66.03;100598.06;5079545;27;45162;-51
2022/09/09 01:32:42;;;;;;;;;2.00;0.25;;;;;17.33;65.85;100613.00;5079286;27;45405;-49
2022/09/09 01:35:32;;;;;;;;;1.00;1.00;;;;;17.34;66.22;100614.66;5079131;27;45259;-47
2022/09/09 01:37:57;;;;;;;;;0.25;0.25;;;;;17.40;65.57;100615.75;5068174;28;45420;-49
2022/09/09 01:40:24;;;;;;;;;2.75;1.00;;;;;17.43;65.52;100604.59;5079204;27;45342;-49
2022/09/09 01:42:50;;;;;;;;;3.25;1.00;;;;;17.35;65.83;100597.50;5079174;27;46239;-50
2022/09/09 01:45:16;;;;;;;;;4.50;0.50;;;;;17.43;65.64;100610.81;5078960;27;45506;-49
2022/09/09 01:47:41;;;;;;;;;1.50;1.00;;;;;17.42;65.81;100616.41;5078909;27;45395;-47
2022/09/09 01:50:11;;;;;;;;;1.00;1.00;;;;;17.43;65.87;100626.13;5079110;27;45226;-47
2022/09/09 01:52:37;;;;;;;;;1.25;1.25;;;;;17.46;65.75;100617.66;5078901;27;46419;-50
2022/09/09 01:55:04;;;;;;;;;2.00;1.00;;;;;17.49;65.77;100619.13;5078705;27;45353;-47
2022/09/09 01:58:13;;;;;;;;;5.25;1.00;;;;;17.54;65.90;100619.41;5078987;27;45416;-50
2022/09/09 02:00:50;;;;;;;;;3.75;1.00;;;;;17.56;65.45;100611.94;5016454;28;45257;-47
2022/09/09 02:03:25;;;;;;;;;1.00;1.00;;;;;17.50;65.68;100602.81;5016128;28;45571;-49
2022/09/09 02:05:57;;;;;;;;;2.75;1.00;;;;;17.48;65.95;100599.47;5016055;28;45408;-49
2022/09/09 02:08:49;;;;;;;;;4.75;1.00;;;;;17.51;65.96;100600.94;5016128;28;45456;-48
2022/09/09 02:11:17;;;;;;;;;3.75;2.50;;;;;17.49;65.79;100597.59;5012949;28;45442;-46
2022/09/09 02:13:48;;;;;;;;;2.25;0.75;;;;;17.52;66.07;100614.19;5015861;28;46248;-50
2022/09/09 02:16:25;;;;;;;;;3.50;1.00;;;;;17.57;65.79;100610.91;5016037;28;45445;-48
2022/09/09 02:18:57;;;;;;;;;5.50;1.00;;;;;17.54;65.69;100606.78;5015980;28;45299;-49
2022/09/09 02:21:24;;;;;;;;;1.75;1.25;;;;;17.50;65.97;100600.13;5016016;28;45518;-49
2022/09/09 02:23:51;;;;;;;;;3.50;2.00;;;;;17.50;65.93;100600.13;5015709;28;45336;-49
2022/09/09 02:26:21;;;;;;;;;4.00;2.00;;;;;17.43;65.99;100593.84;5015805;28;45250;-48
2022/09/09 02:28:49;;;;;;;;;3.25;1.00;;;;;17.38;66.13;100596.28;5015648;28;45342;-46
2022/09/09 02:31:19;;;;;;;;;3.50;1.00;;;;;17.31;66.23;100590.84;5016310;28;45348;-47
2022/09/09 02:33:56;;;;;;;;;1.75;1.25;;;;;17.19;66.63;100571.75;4990946;28;47470;-48
2022/09/09 02:36:26;;;;;;;;;0.75;0.00;;;;;17.31;66.56;100587.34;5078013;27;45467;-46
2022/09/09 02:38:53;;;;;;;;;2.75;1.00;;;;;17.24;66.22;100578.41;5078195;27;45566;-50
2022/09/09 02:41:36;;;;;;;;;1.50;1.00;;;;;17.34;65.89;100595.03;5078571;27;45447;-46
2022/09/09 02:44:08;;;;;;;;;2.25;1.75;;;;;17.37;66.58;100594.66;5078100;27;47327;-51
2022/09/09 02:47:04;;;;;;;;;1.25;1.25;;;;;17.40;66.35;100592.41;5078379;27;45313;-46
2022/09/09 02:50:12;;;;;;;;;3.50;2.00;;;;;17.08;66.31;100540.03;5035667;28;45465;-49
2022/09/09 02:52:42;;;;;;;;;3.50;2.50;;;;;17.42;66.28;100597.56;4976581;28;45513;-46
2022/09/09 02:55:18;;;;;;;;;2.00;2.00;;;;;17.42;66.08;100593.03;4975875;28;46104;-49
2022/09/09 02:57:47;;;;;;;;;1.00;1.00;;;;;17.43;66.21;100586.59;4975673;28;45318;-52
2022/09/09 03:00:13;;;;;;;;;6.75;1.25;;;;;17.11;65.91;100531.56;4976014;28;45389;-47
2022/09/09 03:02:39;;;;;;;;;2.75;1.75;;;;;17.42;66.44;100598.41;4976006;28;45585;-50
2022/09/09 03:05:06;;;;;;;;;3.00;1.50;;;;;17.42;66.20;100590.34;4975732;28;45405;-48
2022/09/09 03:07:31;;;;;;;;;1.75;1.75;;;;;17.40;65.97;100591.53;4975619;28;45382;-48
2022/09/09 03:09:56;;;;;;;;;4.00;1.00;;;;;17.39;66.11;100584.50;4975846;28;45374;-46
2022/09/09 03:12:22;;;;;;;;;4.00;1.00;;;;;17.40;66.58;100594.22;4976133;28;45279;-50
2022/09/09 03:14:47;;;;;;;;;2.50;2.50;;;;;17.39;66.79;100582.66;4975437;28;45531;-51
2022/09/09 03:17:12;;;;;;;;;3.00;3.00;;;;;17.37;66.72;100590.09;4975753;28;45370;-50
2022/09/09 03:19:39;;;;;;;;;4.50;2.00;;;;;17.37;65.91;100587.41;4975644;28;45417;-52
2022/09/09 03:22:04;;;;;;;;;1.50;1.50;;;;;17.38;66.83;100597.13;4975676;28;45599;-47
2022/09/09 03:24:30;;;;;;;;;4.00;2.00;;;;;17.32;66.27;100580.94;4975539;28;46102;-52
2022/09/09 03:26:55;;;;;;;;;1.00;1.00;;;;;17.38;66.58;100591.75;5000178;28;45448;-50
2022/09/09 03:29:21;;;;;;;;;3.00;3.00;;;;;17.38;66.99;100593.59;5059941;28;45394;-47
2022/09/09 03:31:46;;;;;;;;;2.00;0.50;;;;;17.32;67.07;100581.78;5077626;27;45389;-46
2022/09/09 03:34:13;;;;;;;;;2.25;2.25;;;;;17.33;67.15;100582.63;5077275;27;46450;-48
2022/09/09 03:36:40;;;;;;;;;2.25;0.75;;;;;17.26;67.08;100590.63;5077341;27;45173;-48
2022/09/09 03:39:06;;;;;;;;;3.00;3.00;;;;;17.18;67.40;100586.19;5077320;27;45434;-47
2022/09/09 03:41:31;;;;;;;;;5.50;1.00;;;;;17.14;67.28;100597.53;5077477;27;45401;-50
2022/09/09 03:43:57;;;;;;;;;2.25;2.00;;;;;17.10;67.82;100590.88;5077123;27;45391;-52
2022/09/09 03:46:24;;;;;;;;;6.50;2.00;;;;;17.01;67.72;100587.50;5076341;27;45406;-49
2022/09/09 03:48:52;;;;;;;;;2.25;1.50;;;;;17.03;67.89;100588.16;5077346;27;45316;-49
2022/09/09 03:51:18;;;;;;;;;2.75;2.00;;;;;16.98;67.14;100585.22;5077208;27;45429;-51
2022/09/09 03:53:44;;;;;;;;;3.50;2.00;;;;;16.95;67.68;100583.72;5076739;27;47186;-49
2022/09/09 03:56:09;;;;;;;;;1.50;1.25;;;;;16.94;67.91;100592.00;5077026;27;45661;-49
2022/09/09 03:58:36;;;;;;;;;4.00;1.75;;;;;16.79;68.13;100575.09;5077209;27;45509;-51
2022/09/09 04:01:12;;;;;;;;;6.75;3.50;;;;;16.91;68.67;100595.06;5076982;27;45499;-49
2022/09/09 04:03:38;;;;;;;;;3.25;1.00;;;;;16.87;68.46;100599.16;5076972;27;47005;-46
2022/09/09 04:06:06;;;;;;;;;3.00;2.00;;;;;16.85;68.46;100596.63;5076639;27;45310;-47
2022/09/09 04:08:32;;;;;;;;;2.25;1.00;;;;;16.86;68.27;100590.25;5076807;27;45476;-49
2022/09/09 04:10:57;;;;;;;;;2.75;2.75;;;;;16.93;68.51;100593.00;5077305;27;45206;-48
2022/09/09 04:13:23;;;;;;;;;5.00;2.00;;;;;16.92;67.67;100594.84;5076750;27;47255;-48
2022/09/09 04:15:56;;;;;;;;;5.00;3.00;;;;;16.89;68.56;100580.97;5076976;27;45217;-49
2022/09/09 04:18:23;;;;;;;;;2.25;1.00;;;;;16.85;68.97;100593.13;5076983;27;45457;-49
2022/09/09 04:20:50;;;;;;;;;4.00;2.75;;;;;16.80;69.41;100582.13;5076887;27;45265;-48
2022/09/09 04:23:18;;;;;;;;;5.50;2.00;;;;;16.78;68.42;100593.06;5076640;27;46196;-51
2022/09/09 04:25:49;;;;;;;;;1.00;1.00;;;;;16.75;68.99;100593.44;5076408;27;45429;-50
2022/09/09 04:28:16;;;;;;;;;6.00;2.00;;;;;16.72;69.40;100588.41;5076665;27;45605;-47
2022/09/09 04:30:42;;;;;;;;;1.25;1.00;;;;;16.63;69.49;100576.97;5076879;27;45473;-50
2022/09/09 04:33:07;;;;;;;;;2.25;0.75;;;;;16.70;68.69;100582.41;5076643;27;46454;-50
2022/09/09 04:35:33;;;;;;;;;2.00;2.00;;;;;16.62;69.65;100575.31;5076449;27;45298;-51
2022/09/09 04:37:59;;;;;;;;;3.50;1.75;;;;;16.65;70.23;100591.03;5076745;27;45414;-48
2022/09/09 04:40:25;;;;;;;;;6.50;3.00;;;;;16.59;70.14;100582.91;5076633;27;45346;-46
2022/09/09 04:42:51;;;;;;;;;2.50;2.50;;;;;16.64;70.17;100589.38;5076719;27;47251;-51
2022/09/09 04:45:16;;;;;;;;;5.00;1.00;;;;;16.61;69.94;100587.06;5076303;27;45330;-49
2022/09/09 04:47:42;;;;;;;;;2.00;1.50;;;;;16.61;69.25;100594.31;5076711;27;45286;-49
2022/09/09 04:50:08;;;;;;;;;3.75;2.00;;;;;16.56;69.82;100597.56;5076666;27;45490;-46
2022/09/09 04:52:35;;;;;;;;;5.50;2.25;;;;;16.58;69.89;100595.50;5076006;27;46395;-49
2022/09/09 04:55:01;;;;;;;;;3.00;1.00;;;;;16.58;70.46;100595.50;5076384;27;45445;-48
2022/09/09 04:57:26;;;;;;;;;7.75;2.50;;;;;16.57;70.58;100601.06;5078817;27;45301;-52
2022/09/09 04:59:51;;;;;;;;;5.00;3.00;;;;;16.56;70.53;100594.88;5080017;27;45406;-45
2022/09/09 05:02:17;;;;;;;;;5.75;2.00;;;;;16.57;69.32;100598.38;5079594;27;49905;-49
2022/09/09 05:04:42;;;;;;;;;5.00;2.00;;;;;16.55;70.34;100595.88;5079541;27;45440;-48
2022/09/09 05:07:07;;;;;;;;;2.00;2.00;;;;;16.53;70.18;100602.47;5079460;27;45334;-47
2022/09/09 05:09:33;;;;;;;;;5.00;2.00;;;;;16.51;69.89;100599.13;5079657;27;45397;-48
2022/09/09 05:11:59;;;;;;;;;3.00;2.75;;;;;16.49;69.77;100602.00;5079436;27;45530;-50
2022/09/09 05:14:24;;;;;;;;;3.00;2.75;;;;;16.48;70.03;100608.41;5079382;27;45418;-49
2022/09/09 05:16:49;;;;;;;;;2.75;2.00;;;;;16.42;70.46;100595.72;5079968;27;45983;-51
2022/09/09 05:19:18;;;;;;;;;3.00;3.00;;;;;16.43;70.96;100621.53;5079634;27;45397;-48
2022/09/09 05:21:44;;;;;;;;;8.00;2.00;;;;;16.43;71.38;100610.81;5079089;27;46236;-51
2022/09/09 05:24:09;;;;;;;;;8.67;3.00;;;;;16.46;71.53;100610.44;5079295;27;45212;-48
2022/09/09 05:26:34;;;;;;;;;4.00;3.00;;;;;16.46;70.69;100613.13;5079599;27;45481;-49
2022/09/09 05:29:01;;;;;;;;;7.00;4.00;;;;;16.46;71.09;100618.50;5079453;27;45414;-48
2022/09/09 05:31:29;;;;;;;;;3.67;2.00;;;;;16.49;70.19;100625.34;5079029;27;47119;-51
2022/09/09 05:33:54;;;;;;;;;2.33;2.00;;;;;16.50;71.42;100629.69;5079020;27;45531;-51
2022/09/09 05:36:21;;;;;;;;;3.33;3.33;;;;;16.54;71.19;100621.06;5079524;27;45429;-49
2022/09/09 05:38:47;;;;;;;;;4.33;2.67;;;;;16.58;70.69;100616.16;5078975;27;45395;-50
2022/09/09 05:41:15;;;;;;;;;5.67;3.00;;;;;16.49;70.16;100607.38;5078335;27;45251;-48
2022/09/09 05:43:44;;;;;;;;;5.33;4.33;;;;;16.61;70.93;100619.31;5079053;27;45207;-49
2022/09/09 05:46:14;;;;;;;;;3.67;3.67;;;;;16.67;70.90;100617.69;5079161;27;45411;-48
2022/09/09 05:48:42;;;;;;;;;9.00;3.67;;;;;16.69;70.34;100611.13;5079062;27;45196;-48
2022/09/09 05:51:15;;;;;;;;;5.00;2.33;;;;;16.69;70.69;100602.25;5078671;27;46156;-50
2022/09/09 05:53:42;;;;;;;;;3.00;3.00;;;;;16.78;70.43;100621.78;5078829;27;45190;-50
2022/09/09 05:56:17;;;;;;;;;4.00;2.00;;;;;16.77;71.25;100620.97;5078995;27;45458;-48
2022/09/09 05:58:43;;;;;;;;;3.33;2.00;;;;;16.81;71.45;100614.19;5078889;27;45393;-47
2022/09/09 06:01:15;;;;;;;;;6.33;3.00;;;;;16.89;70.80;100618.59;5078666;27;47038;-49
2022/09/09 06:03:42;;;;;;;;;3.75;1.25;;;;;16.92;69.96;100612.84;5078652;27;45310;-51
2022/09/09 06:06:09;;;;;;;;;2.33;2.00;;;;;16.99;69.70;100605.69;5078924;27;45457;-49
2022/09/09 06:08:38;;;;;;;;;4.00;2.00;;;;;16.99;70.11;100602.16;5078232;27;45375;-49
2022/09/09 06:11:10;;;;;;;;;6.33;3.67;;;;;17.05;70.17;100612.97;5078339;27;46365;-50
2022/09/09 06:13:38;;;;;;;;;4.00;3.00;;;;;17.07;70.31;100600.19;5078435;27;45373;-52
2022/09/09 06:16:04;;;;;;;;;3.33;3.33;;;;;17.15;70.00;100618.00;5078714;27;45311;-50
2022/09/09 06:18:30;;;;;;;;;3.33;1.67;;;;;17.12;69.51;100596.91;5078893;27;45378;-47
2022/09/09 06:21:01;;;;;;;;;6.25;3.25;;;;;17.27;69.27;100612.94;5078398;27;45514;-48
2022/09/09 06:23:27;;;;;;;;;6.00;2.00;;;;;17.24;69.69;100618.72;5078231;28;45309;-47
2022/09/09 06:26:07;;;;;;;;;3.75;1.00;;;;;17.37;69.13;100616.16;5078551;27;45414;-51
2022/09/09 06:28:33;;;;;;;;;3.33;3.33;;;;;17.43;68.99;100618.06;5078533;27;45434;-49
2022/09/09 06:31:07;;;;;;;;;3.00;1.25;;;;;17.46;68.73;100614.97;5078258;27;46153;-48
2022/09/09 06:33:34;;;;;;;;;4.00;4.00;;;;;17.51;69.08;100620.59;5078079;27;45412;-48
2022/09/09 06:36:01;;;;;;;;;4.75;2.00;;;;;17.53;68.46;100623.94;5077136;27;45443;-47
2022/09/09 06:38:27;;;;;;;;;4.00;3.25;;;;;17.56;68.97;100618.16;4978344;27;45335;-47
2022/09/09 06:40:58;;;;;;;;;2.00;2.00;;;;;17.47;68.65;100595.13;5022394;28;46334;-48
2022/09/09 06:43:27;;;;;;;;;2.00;2.00;;;;;17.58;68.65;100604.53;5077856;27;45339;-48
2022/09/09 06:46:19;;;;;;;;;2.00;2.00;;;;;17.71;68.10;100624.28;5078125;27;45451;-47
2022/09/09 06:48:45;;;;;;;;;4.00;3.00;;;;;17.78;67.83;100618.97;5075538;28;45435;-46
2022/09/09 06:51:14;;;;;;;;;2.00;2.00;;;;;17.83;67.50;100623.78;5076159;27;45361;-47
2022/09/09 06:53:41;;;;;;;;;2.50;2.00;;;;;17.88;67.60;100615.94;5077749;27;45498;-49
2022/09/09 06:56:29;;;;;;;;;2.00;2.00;;;;;17.99;67.17;100618.06;5077984;27;45390;-48
2022/09/09 06:58:56;;;;;;;;;7.00;1.00;;;;;18.09;66.77;100623.91;5077988;27;45321;-47
2022/09/09 07:01:24;;;;;;;;;5.25;3.00;;;;;18.15;66.38;100622.28;5076891;27;46208;-48
2022/09/09 07:03:52;;;;;;;;;2.00;2.00;;;;;18.20;66.25;100615.28;5077540;27;45308;-48
2022/09/09 07:06:24;;;;;;;;;2.50;1.50;;;;;18.40;65.58;100609.97;5077579;27;45341;-48
2022/09/09 07:08:53;;;;;;;;;3.00;2.00;;;;;18.62;65.42;100620.63;5077295;27;45327;-49
2022/09/09 07:11:21;;;;;;;;;2.00;1.50;;;;;18.58;64.90;100604.06;5077400;27;46279;-50
2022/09/09 07:13:47;;;;;;;;;4.75;2.00;;;;;18.63;64.94;100598.06;5077368;27;45393;-50
2022/09/09 07:16:16;;;;;;;;;2.75;2.00;;;;;18.72;64.16;100622.97;5077403;27;45410;-51
2022/09/09 07:18:41;;;;;;;;;2.00;2.00;;;;;18.77;64.13;100626.72;5077548;27;45392;-47
2022/09/09 07:21:08;;;;;;;;;1.00;1.00;;;;;18.85;64.01;100628.41;5075979;27;46126;-49
2022/09/09 07:23:35;;;;;;;;;3.00;2.25;;;;;18.90;63.84;100620.53;5077225;27;45579;-49
2022/09/09 07:26:01;;;;;;;;;3.00;1.50;;;;;18.91;63.65;100635.66;5077530;27;45365;-46
2022/09/09 07:28:27;;;;;;;;;5.75;4.00;;;;;18.95;63.59;100634.22;5077298;27;45366;-46
2022/09/09 07:30:57;;;;;;;;;1.75;1.75;;;;;19.02;63.54;100642.31;5077303;27;47174;-49
2022/09/09 07:33:24;;;;;;;;;2.50;1.00;;;;;19.13;62.51;100633.63;5077130;27;45438;-51
2022/09/09 07:35:50;;;;;;;;;2.00;2.00;;;;;19.13;62.69;100639.88;5077251;27;45362;-50
2022/09/09 07:38:16;;;;;;;;;3.00;3.00;;;;;19.18;62.22;100647.34;5077634;27;45524;-48
2022/09/09 07:40:42;;;;;;;;;4.00;2.00;;;;;19.40;61.65;100650.66;5076835;27;45216;-49
2022/09/09 07:43:08;;;;;;;;;1.20;1.20;;;;;19.46;61.16;100625.53;5077178;27;45346;-51
2022/09/09 07:45:35;;;;;;;;;6.00;2.00;;;;;19.67;60.79;100640.72;5077269;27;45410;-49
2022/09/09 07:48:01;;;;;;;;;2.00;2.00;;;;;19.66;60.71;100634.50;5077258;27;45442;-49
2022/09/09 07:50:26;;;;;;;;;2.00;1.50;;;;;19.67;60.75;100643.41;5077043;27;45367;-47
2022/09/09 07:52:53;;;;;;;;;3.00;1.25;;;;;19.71;60.74;100651.94;5076312;27;45250;-46
2022/09/09 07:55:19;;;;;;;;;2.00;2.00;;;;;19.66;60.81;100644.47;5076324;27;45350;-46
2022/09/09 07:57:44;;;;;;;;;4.50;2.75;;;;;19.59;60.89;100652.56;5077148;27;45317;-47
2022/09/09 08:00:11;;;;;;;;;3.50;3.50;;;;;19.45;60.71;100646.31;5076664;27;45940;-49
2022/09/09 08:02:36;;;;;;;;;1.40;1.40;;;;;19.41;61.23;100652.31;5077059;27;45394;-47
2022/09/09 08:05:02;;;;;;;;;3.00;1.50;;;;;19.38;60.67;100658.97;5076902;27;45456;-49
2022/09/09 08:07:28;;;;;;;;;2.25;2.00;;;;;19.52;60.72;100662.50;5077022;27;45339;-50
2022/09/09 08:09:55;;;;;;;;;5.00;2.50;;;;;19.60;60.34;100658.78;5076695;27;46907;-48
2022/09/09 08:12:21;;;;;;;;;3.00;2.00;;;;;19.62;60.31;100668.34;5076818;27;45461;-46
2022/09/09 08:14:46;;;;;;;;;2.75;1.00;;;;;19.62;60.21;100656.72;5076791;27;45255;-51
2022/09/09 08:17:11;;;;;;;;;5.50;2.75;;;;;19.58;60.49;100672.47;5076754;27;45483;-50
2022/09/09 08:19:37;;;;;;;;;3.50;2.50;;;;;19.50;60.42;100667.25;5076603;27;46278;-48
2022/09/09 08:22:03;;;;;;;;;2.75;2.00;;;;;19.43;60.39;100674.53;5076803;27;45234;-47
2022/09/09 08:24:28;;;;;;;;;2.00;1.00;;;;;19.39;60.71;100681.38;5076591;27;45483;-48
2022/09/09 08:26:56;;;;;;;;;2.00;2.00;;;;;19.30;60.78;100679.91;5077027;27;45469;-48
2022/09/09 08:29:22;;;;;;;;;3.00;3.00;;;;;19.30;60.87;100685.28;5076231;27;46354;-47
2022/09/09 08:31:51;;;;;;;;;2.50;2.00;;;;;19.39;60.83;100676.00;5077908;27;45493;-50
2022/09/09 08:34:19;;;;;;;;;3.00;3.00;;;;;19.52;60.35;100685.97;5080565;27;45226;-50
2022/09/09 08:36:46;;;;;;;;;2.50;2.00;;;;;19.69;59.81;100681.84;5080170;27;45392;-48
2022/09/09 08:39:15;;;;;;;;;5.00;1.75;;;;;20.01;59.18;100672.03;5079468;27;46397;-50
2022/09/09 08:41:55;;;;;;;;;1.40;1.00;;;;;20.49;58.90;100693.38;5079650;27;45432;-49
2022/09/09 08:44:20;;;;;;;;;4.25;1.25;;;;;20.97;57.13;100671.31;5080163;27;45377;-49
2022/09/09 08:46:57;;;;;;;;;1.00;1.00;;;;;21.14;57.02;100685.13;5080061;27;45436;-50
2022/09/09 08:49:31;;;;;;;;;2.00;2.00;;;;;21.10;56.28;100676.63;5079746;27;47478;-47
2022/09/09 08:51:57;;;;;;;;;2.00;2.00;;;;;21.11;56.25;100675.59;5079801;27;45311;-50
2022/09/09 08:54:26;;;;;;;;;3.00;3.00;;;;;21.09;55.83;100666.88;5079911;27;45361;-50
2022/09/09 08:56:51;;;;;;;;;2.00;2.00;;;;;21.04;56.23;100684.81;5079960;27;45376;-50
2022/09/09 08:59:19;;;;;;;;;4.00;1.00;;;;;20.86;55.72;100678.25;5079495;27;45416;-51
2022/09/09 09:02:23;;;;;;;;;4.20;1.00;;;;;20.84;56.25;100682.19;5079612;27;45322;-49
2022/09/09 09:05:13;;;;;;;;;2.00;2.00;;;;;20.94;56.10;100682.53;5078214;27;45478;-49
2022/09/09 09:08:06;;;;;;;;;2.00;1.25;;;;;21.33;54.74;100691.53;5080043;27;45309;-51
2022/09/09 09:10:48;;;;;;;;;1.00;1.00;;;;;21.56;55.64;100699.03;5000740;28;46061;-49
2022/09/09 09:13:23;;;;;;;;;5.60;3.00;;;;;21.97;54.76;100708.50;4976699;28;45413;-48
2022/09/09 09:15:59;;;;;;;;;5.40;3.00;;;;;22.41;52.96;100699.31;4976640;28;45520;-51
2022/09/09 09:18:24;;;;;;;;;5.20;1.60;;;;;22.86;53.02;100712.53;4976592;28;45310;-49
2022/09/09 09:20:51;;;;;;;;;1.00;1.00;;;;;22.89;51.52;100709.38;4976377;28;46095;-51
2022/09/09 09:23:23;;;;;;;;;3.20;2.00;;;;;22.86;51.85;100712.53;4976150;28;45393;-48
2022/09/09 09:25:51;;;;;;;;;3.80;2.20;;;;;22.67;51.96;100717.16;4976172;28;45451;-50
2022/09/09 09:28:22;;;;;;;;;1.00;1.00;;;;;22.31;52.53;100720.69;4976542;28;45279;-51
2022/09/09 09:31:11;;;;;;;;;2.00;2.00;;;;;22.23;53.11;100720.97;4976018;28;46117;-45
2022/09/09 09:33:40;;;;;;;;;2.60;2.60;;;;;22.17;53.80;100717.28;4976436;28;45389;-49
2022/09/09 09:36:08;;;;;;;;;4.20;1.80;;;;;22.26;53.15;100732.19;4974998;28;45411;-48
2022/09/09 09:38:34;;;;;;;;;1.60;1.60;;;;;22.18;52.78;100724.38;4974879;28;45702;-46
2022/09/09 09:41:00;;;;;;;;;1.60;1.40;;;;;22.08;52.82;100721.28;4976037;28;45472;-51
2022/09/09 09:43:32;;;;;;;;;5.00;1.20;;;;;21.76;53.61;100731.38;4975228;28;45442;-49
2022/09/09 09:45:58;;;;;;;;;4.60;2.20;;;;;21.48;54.21;100729.91;4976265;28;45382;-51
2022/09/09 09:48:26;;;;;;;;;3.60;2.20;;;;;21.40;54.20;100738.28;4962098;28;45424;-47
2022/09/09 09:51:07;;;;;;;;;1.40;1.00;;;;;21.32;54.52;100725.00;4956820;28;46165;-49
2022/09/09 09:53:38;;;;;;;;;6.20;2.00;;;;;21.14;54.58;100742.78;4962394;28;45452;-47
2022/09/09 09:56:04;;;;;;;;;3.00;3.00;;;;;20.99;55.47;100736.00;4967612;28;45355;-48
2022/09/09 09:58:33;;;;;;;;;1.00;1.00;;;;;20.95;55.42;100742.88;4976227;28;45359;-47
2022/09/09 10:01:00;;;;;;;;;3.80;2.00;;;;;20.92;55.38;100744.13;4975779;28;45598;-49
2022/09/09 10:03:29;;;;;;;;;2.20;1.20;;;;;21.06;55.62;100725.97;4975895;28;45440;-51
2022/09/09 10:05:56;;;;;;;;;5.00;2.20;;;;;22.64;52.71;100740.13;4976080;28;45363;-52
2022/09/09 10:08:23;;;;;;;;;6.20;2.80;;;;;23.09;51.16;100739.81;4975922;28;45586;-48
2022/09/09 10:11:07;;;;;;;;;1.40;1.40;;;;;23.39;50.65;100745.25;4975165;28;45413;-52
2022/09/09 10:14:07;;;;;;;;;2.40;2.00;;;;;23.23;50.37;100743.16;4975779;28;45319;-51
2022/09/09 10:16:49;;;;;;;;;2.00;2.00;;;;;23.00;51.81;100743.06;5056578;28;45326;-52
2022/09/09 10:19:29;;;;;;;;;4.60;2.80;;;;;22.80;51.70;100754.16;5078728;27;45426;-50
2022/09/09 10:21:57;;;;;;;;;2.00;1.80;;;;;22.58;51.69;100751.88;5078430;27;46937;-50
2022/09/09 10:24:31;;;;;;;;;4.00;2.00;;;;;22.52;52.20;100750.06;5077198;28;45334;-50
2022/09/09 10:27:16;;;;;;;;;1.60;1.60;;;;;22.75;51.30;100754.78;5078490;27;45402;-46
2022/09/09 10:30:00;;;;;;;;;2.40;1.00;;;;;23.45;50.69;100745.38;5078691;27;45233;-49
2022/09/09 10:32:53;;;;;;;;;2.20;2.20;;;;;23.95;49.09;100755.91;5078266;27;45279;-47
2022/09/09 10:35:30;;;;;;;;;1.80;1.80;;;;;24.39;47.80;100749.88;5078248;27;45266;-46
2022/09/09 10:38:17;;;;;;;;;2.80;1.20;;;;;24.39;48.71;100751.78;5078382;27;45254;-47
2022/09/09 10:40:56;;;;;;;;;0.80;0.80;;;;;24.66;47.67;100756.72;5078292;27;45452;-50
2022/09/09 10:43:36;;;;;;;;;3.00;3.00;;;;;24.26;47.98;100732.97;5078104;27;47095;-48
2022/09/09 10:46:13;;;;;;;;;4.00;4.00;;;;;23.98;48.40;100756.25;5078123;27;45484;-50
2022/09/09 10:48:57;;;;;;;;;2.00;2.00;;;;;23.61;49.41;100756.38;5078477;27;45479;-48
2022/09/09 10:51:49;;;;;;;;;1.80;1.00;;;;;24.63;48.01;100742.53;5078666;27;45450;-51
2022/09/09 10:54:27;;;;;;;;;1.40;1.20;;;;;26.96;43.80;100748.59;5077792;27;47310;-46
2022/09/09 10:56:59;;;;;;;;;3.40;1.20;;;;;27.05;42.66;100740.78;5077898;27;45429;-49
2022/09/09 10:59:40;;;;;;;;;2.20;2.00;;;;;26.51;44.80;100738.78;5078007;27;45371;-49
2022/09/09 11:02:17;;;;;;;;;3.00;1.40;;;;;26.06;44.51;100741.66;5078190;27;45398;-52
2022/09/09 11:04:50;;;;;;;;;2.60;2.00;;;;;26.05;43.92;100729.91;5077577;27;46242;-49
2022/09/09 11:07:26;;;;;;;;;2.40;0.80;;;;;25.32;45.36;100760.78;5077772;27;45359;-47
2022/09/09 11:10:00;;;;;;;;;4.00;2.00;;;;;24.54;47.20;100749.41;5077748;27;45364;-48
2022/09/09 11:12:28;;;;;;;;;3.60;1.80;;;;;23.88;48.68;100747.84;5078001;27;45405;-47
2022/09/09 11:15:21;;;;;;;;;5.20;1.80;;;;;23.77;49.43;100735.91;5077683;27;46146;-49
2022/09/09 11:17:54;;;;;;;;;2.40;2.00;;;;;23.85;49.66;100748.31;5069595;27;45492;-48
2022/09/09 11:20:19;;;;;;;;;1.20;1.20;;;;;23.96;49.50;100741.25;5077930;27;45339;-47
2022/09/09 11:22:52;;;;;;;;;3.25;1.00;;;;;25.83;46.19;100727.13;5077938;27;45390;-48
2022/09/09 11:25:36;;;;;;;;;3.00;2.00;;;;;26.20;44.85;100732.03;5077341;27;45207;-48
2022/09/09 11:28:31;;;;;;;;;5.00;0.80;;;;;26.30;44.40;100728.66;5077162;27;45328;-50
2022/09/09 11:30:59;;;;;;;;;5.20;3.00;;;;;27.67;42.24;100725.84;5054806;27;45547;-50
2022/09/09 11:33:48;;;;;;;;;2.60;0.80;;;;;28.46;40.40;100736.84;5077911;28;45259;-47
2022/09/09 11:36:34;;;;;;;;;4.00;1.00;;;;;27.92;41.16;100728.81;5014642;28;46175;-46
2022/09/09 11:39:23;;;;;;;;;4.60;1.80;;;;;27.30;42.66;100726.59;5014709;28;45554;-47
2022/09/09 11:41:49;;;;;;;;;3.60;1.00;;;;;27.28;40.54;100728.78;5014996;28;45533;-46
2022/09/09 11:44:26;;;;;;;;;0.75;0.75;;;;;27.19;39.94;100735.81;5015056;28;45467;-50